Time;durP1;ratioP1;P1;durP2;ratioP2;P2;SDS_P1;SDS_P2;PMS_P1;PMS_P2;Temp;Humidity;BMP_temperature;BMP_pressure;BME280_temperature;BME280_humidity;BME280_pressure;Samples;Min_cycle;Max_cycle;Signal;HPM_P1;HPM_P2
2021/05/13 00:00:26;;;;;;;7.37;5.23;;;14.40;93.00;;;;;;5113775;28;20635;-51
2021/05/13 00:02:52;;;;;;;8.40;5.83;;;14.40;92.90;;;;;;5114464;28;20675;-51
2021/05/13 00:05:19;;;;;;;6.83;5.60;;;14.50;93.20;;;;;;5113877;28;20696;-49
2021/05/13 00:07:46;;;;;;;9.80;6.90;;;14.50;92.80;;;;;;5112604;28;20651;-51
2021/05/13 00:10:16;;;;;;;6.13;5.60;;;14.50;92.80;;;;;;5113071;28;20623;-51
2021/05/13 00:12:48;;;;;;;9.27;5.30;;;14.50;92.70;;;;;;5113540;28;20991;-51
2021/05/13 00:15:17;;;;;;;5.93;5.33;;;14.50;92.70;;;;;;5113861;28;20623;-52
2021/05/13 00:17:44;;;;;;;6.47;5.87;;;14.50;92.90;;;;;;5104698;28;21305;-52
2021/05/13 00:20:12;;;;;;;4.90;4.50;;;14.50;92.60;;;;;;5111055;28;20668;-51
2021/05/13 00:22:39;;;;;;;5.40;4.93;;;14.40;92.50;;;;;;5113730;27;21167;-52
2021/05/13 00:25:07;;;;;;;5.93;5.43;;;14.40;92.70;;;;;;5113237;27;20644;-52
2021/05/13 00:27:34;;;;;;;6.37;5.10;;;14.40;92.70;;;;;;5112690;28;20682;-52
2021/05/13 00:30:01;;;;;;;5.57;5.00;;;14.40;92.80;;;;;;5112926;28;21191;-51
2021/05/13 00:32:28;;;;;;;6.40;5.80;;;14.30;92.60;;;;;;5113278;28;20633;-50
2021/05/13 00:34:55;;;;;;;5.63;5.13;;;14.20;92.60;;;;;;5113195;28;20659;-52
2021/05/13 00:37:21;;;;;;;8.47;4.63;;;14.10;92.70;;;;;;5113284;28;20632;-52
2021/05/13 00:39:49;;;;;;;4.50;4.10;;;14.10;92.90;;;;;;5113783;28;20688;-51
2021/05/13 00:42:15;;;;;;;5.23;4.83;;;14.10;93.10;;;;;;5113392;28;20627;-52
2021/05/13 00:44:44;;;;;;;6.13;5.47;;;14.10;93.10;;;;;;5113684;28;20701;-54
2021/05/13 00:47:12;;;;;;;9.63;5.60;;;14.10;93.00;;;;;;5113175;28;21480;-50
2021/05/13 00:49:39;;;;;;;5.77;5.20;;;14.20;93.00;;;;;;5112768;28;20635;-52
2021/05/13 00:52:07;;;;;;;5.10;4.73;;;14.20;93.10;;;;;;5113281;28;20627;-52
2021/05/13 00:54:33;;;;;;;5.63;5.13;;;14.20;93.10;;;;;;5111261;28;20685;-52
2021/05/13 00:57:00;;;;;;;7.53;5.23;;;14.20;92.90;;;;;;5112745;28;20631;-53
2021/05/13 00:59:29;;;;;;;7.53;5.30;;;14.20;92.80;;;;;;5112309;28;20631;-52
2021/05/13 01:01:58;;;;;;;5.53;5.13;;;14.20;92.70;;;;;;5113022;27;20986;-52
2021/05/13 01:04:25;;;;;;;5.90;5.40;;;14.10;92.80;;;;;;5112697;28;20716;-51
2021/05/13 01:06:51;;;;;;;5.67;5.17;;;14.20;92.90;;;;;;5113134;28;20691;-52
2021/05/13 01:09:22;;;;;;;5.20;4.70;;;14.10;92.90;;;;;;5112167;28;20723;-52
2021/05/13 01:11:52;;;;;;;5.07;4.63;;;14.10;92.90;;;;;;5112413;28;20623;-52
2021/05/13 01:14:22;;;;;;;6.40;5.80;;;14.10;92.80;;;;;;5112446;28;20712;-51
2021/05/13 01:16:55;;;;;;;6.73;5.77;;;14.10;92.80;;;;;;5103567;28;20620;-51
2021/05/13 01:19:22;;;;;;;5.50;5.00;;;14.10;92.80;;;;;;5110957;28;21810;-51
2021/05/13 01:21:50;;;;;;;6.33;5.83;;;14.00;92.80;;;;;;5112144;28;20688;-51
2021/05/13 01:24:17;;;;;;;7.80;6.50;;;14.00;92.80;;;;;;5112736;27;21295;-51
2021/05/13 01:26:44;;;;;;;7.10;6.30;;;14.00;92.80;;;;;;5111914;28;20716;-51
2021/05/13 01:29:12;;;;;;;13.30;6.00;;;13.90;92.80;;;;;;5111611;28;20674;-50
2021/05/13 01:31:38;;;;;;;7.70;6.93;;;13.90;92.80;;;;;;5112290;28;20639;-50
2021/05/13 01:34:06;;;;;;;7.27;6.33;;;13.90;93.00;;;;;;5109102;22;20675;-54
2021/05/13 01:36:33;;;;;;;10.67;6.80;;;13.80;92.90;;;;;;5030162;28;20685;-54
2021/05/13 01:39:01;;;;;;;10.40;6.80;;;13.80;93.00;;;;;;5029643;28;20631;-55
2021/05/13 01:41:28;;;;;;;7.43;6.63;;;13.80;93.00;;;;;;5015738;28;20620;-54
2021/05/13 01:43:55;;;;;;;7.70;6.87;;;13.70;93.00;;;;;;5011780;28;20709;-54
2021/05/13 01:46:21;;;;;;;9.30;7.07;;;13.70;92.90;;;;;;5025828;28;20652;-54
2021/05/13 01:48:48;;;;;;;13.07;6.70;;;13.60;92.90;;;;;;5029817;28;20964;-54
2021/05/13 01:51:15;;;;;;;8.37;6.73;;;13.60;93.10;;;;;;5029943;28;20654;-53
2021/05/13 01:53:42;;;;;;;6.90;6.10;;;13.60;93.10;;;;;;5030152;28;20685;-54
2021/05/13 01:56:10;;;;;;;15.57;6.43;;;13.60;92.90;;;;;;5029754;28;20626;-54
2021/05/13 01:58:37;;;;;;;12.63;6.27;;;13.60;93.10;;;;;;5029518;28;20701;-54
2021/05/13 02:01:04;;;;;;;6.50;5.90;;;13.50;92.70;;;;;;5029744;28;20627;-54
2021/05/13 02:03:31;;;;;;;6.60;5.97;;;13.40;92.90;;;;;;5030060;28;20619;-53
2021/05/13 02:05:58;;;;;;;10.37;6.40;;;13.30;92.90;;;;;;5020087;28;20616;-56
2021/05/13 02:08:25;;;;;;;8.70;5.93;;;13.40;93.00;;;;;;5018123;28;20976;-52
2021/05/13 02:10:51;;;;;;;8.37;6.00;;;13.30;92.90;;;;;;5030128;28;20631;-53
2021/05/13 02:13:19;;;;;;;7.33;6.20;;;13.30;92.90;;;;;;5030037;28;20716;-53
2021/05/13 02:15:46;;;;;;;9.93;7.10;;;13.30;92.90;;;;;;5029887;28;20654;-54
2021/05/13 02:18:12;;;;;;;8.93;6.40;;;13.30;92.90;;;;;;5029351;28;21048;-53
2021/05/13 02:20:39;;;;;;;7.03;6.33;;;13.30;92.80;;;;;;5029755;28;20627;-53
2021/05/13 02:23:06;;;;;;;6.70;5.53;;;13.30;93.20;;;;;;5029953;28;20627;-53
2021/05/13 02:25:33;;;;;;;6.20;5.60;;;13.20;92.90;;;;;;5027789;28;20694;-53
2021/05/13 02:28:00;;;;;;;8.03;7.20;;;13.10;93.00;;;;;;5029478;28;20724;-53
2021/05/13 02:30:28;;;;;;;8.10;5.33;;;12.90;93.00;;;;;;5029529;28;20637;-53
2021/05/13 02:32:55;;;;;;;6.80;6.20;;;12.90;93.20;;;;;;5033706;28;20637;-53
2021/05/13 02:35:22;;;;;;;6.70;6.10;;;12.80;93.50;;;;;;5033376;28;20662;-52
2021/05/13 02:37:49;;;;;;;7.33;6.00;;;12.80;93.70;;;;;;5033601;28;20637;-52
2021/05/13 02:40:16;;;;;;;5.90;5.40;;;12.90;93.70;;;;;;5032806;28;20626;-53
2021/05/13 02:42:43;;;;;;;8.30;5.60;;;12.90;93.50;;;;;;5033304;28;20691;-53
2021/05/13 02:45:11;;;;;;;6.80;6.23;;;12.90;93.40;;;;;;5033146;28;20662;-52
2021/05/13 02:47:38;;;;;;;6.57;5.90;;;13.00;93.50;;;;;;5031400;28;20708;-53
2021/05/13 02:50:06;;;;;;;5.67;5.17;;;13.00;93.40;;;;;;5033291;28;20626;-54
2021/05/13 02:52:33;;;;;;;6.47;5.87;;;13.00;93.40;;;;;;5033762;28;20758;-53
2021/05/13 02:55:00;;;;;;;6.50;5.90;;;13.00;93.20;;;;;;5031467;28;20665;-53
2021/05/13 02:57:26;;;;;;;6.37;5.83;;;13.00;93.10;;;;;;5033278;28;20623;-53
2021/05/13 02:59:57;;;;;;;6.77;5.37;;;13.00;93.20;;;;;;5033051;28;20697;-53
2021/05/13 03:02:24;;;;;;;7.00;6.30;;;12.90;93.20;;;;;;5032609;28;20930;-53
2021/05/13 03:04:52;;;;;;;6.83;5.93;;;12.90;93.30;;;;;;5032736;28;20667;-53
2021/05/13 03:07:18;;;;;;;8.03;6.10;;;12.90;93.10;;;;;;5031194;28;20716;-53
2021/05/13 03:09:49;;;;;;;6.43;5.83;;;12.90;93.50;;;;;;5032593;28;20674;-53
2021/05/13 03:12:16;;;;;;;6.97;6.37;;;12.70;93.50;;;;;;5032886;28;20697;-53
2021/05/13 03:14:44;;;;;;;6.43;5.73;;;12.70;93.40;;;;;;5032733;28;21218;-53
2021/05/13 03:17:11;;;;;;;7.10;6.40;;;12.70;93.50;;;;;;5032750;28;20619;-53
2021/05/13 03:19:42;;;;;;;6.57;5.97;;;12.70;93.60;;;;;;5032496;28;20630;-53
2021/05/13 03:22:12;;;;;;;6.20;5.67;;;12.60;93.50;;;;;;5032681;28;20630;-54
2021/05/13 03:24:44;;;;;;;6.27;5.63;;;12.60;93.70;;;;;;5032923;28;20701;-53
2021/05/13 03:27:13;;;;;;;6.23;5.63;;;12.70;94.20;;;;;;5031749;28;20677;-52
2021/05/13 03:29:40;;;;;;;5.60;5.20;;;12.70;94.10;;;;;;5016501;28;21195;-51
2021/05/13 03:32:07;;;;;;;9.70;7.97;;;12.70;93.80;;;;;;5023518;28;20630;-53
2021/05/13 03:34:33;;;;;;;6.90;6.30;;;12.80;93.60;;;;;;5032324;28;21242;-52
2021/05/13 03:37:00;;;;;;;7.77;6.00;;;12.70;93.50;;;;;;5032543;28;20681;-52
2021/05/13 03:39:28;;;;;;;7.10;6.50;;;12.70;93.50;;;;;;5032275;28;20681;-51
2021/05/13 03:41:55;;;;;;;7.37;6.67;;;12.70;93.90;;;;;;5030186;28;20637;-52
2021/05/13 03:44:22;;;;;;;5.40;4.90;;;12.70;93.70;;;;;;5031981;28;20658;-53
2021/05/13 03:46:49;;;;;;;6.07;5.57;;;12.60;93.90;;;;;;5031928;28;20678;-53
2021/05/13 03:49:15;;;;;;;6.43;5.93;;;12.60;93.90;;;;;;5031971;28;20619;-53
2021/05/13 03:51:42;;;;;;;8.40;6.73;;;12.60;94.00;;;;;;5032092;28;20634;-53
2021/05/13 03:54:09;;;;;;;10.67;5.97;;;12.60;93.50;;;;;;5032106;28;20658;-53
2021/05/13 03:56:36;;;;;;;7.13;6.43;;;12.60;93.50;;;;;;5032535;28;20621;-53
2021/05/13 03:59:09;;;;;;;6.07;5.57;;;12.50;93.40;;;;;;5030400;28;21256;-53
2021/05/13 04:01:46;;;;;;;7.23;6.00;;;12.50;93.40;;;;;;5030720;28;20663;-53
2021/05/13 04:04:13;;;;;;;8.43;6.67;;;12.50;93.40;;;;;;5031814;28;20750;-53
2021/05/13 04:06:40;;;;;;;8.27;6.60;;;12.50;93.30;;;;;;5032028;28;20665;-53
2021/05/13 04:09:09;;;;;;;8.63;7.90;;;12.40;93.40;;;;;;5031414;28;20693;-52
2021/05/13 04:11:37;;;;;;;8.23;6.83;;;12.40;93.40;;;;;;5032057;28;20749;-54
2021/05/13 04:14:04;;;;;;;6.53;5.93;;;12.40;93.40;;;;;;5031729;28;20659;-53
2021/05/13 04:16:33;;;;;;;7.30;6.70;;;12.40;93.50;;;;;;5031205;28;20639;-52
2021/05/13 04:19:00;;;;;;;7.63;6.00;;;12.40;93.50;;;;;;5030978;28;20700;-53
2021/05/13 04:21:28;;;;;;;6.93;6.13;;;12.30;93.60;;;;;;5027432;28;20624;-53
2021/05/13 04:23:54;;;;;;;7.70;6.90;;;12.40;93.70;;;;;;5026074;28;20686;-53
2021/05/13 04:26:21;;;;;;;7.40;6.70;;;12.40;93.60;;;;;;5031595;28;21184;-52
2021/05/13 04:28:49;;;;;;;9.70;7.13;;;12.40;93.70;;;;;;5030695;28;20736;-53
2021/05/13 04:31:15;;;;;;;7.10;6.30;;;12.30;93.70;;;;;;5031723;28;20986;-53
2021/05/13 04:33:42;;;;;;;7.50;6.80;;;12.30;93.70;;;;;;5031183;28;20681;-53
2021/05/13 04:36:09;;;;;;;7.13;6.50;;;12.40;93.70;;;;;;5032457;28;20681;-53
2021/05/13 04:38:36;;;;;;;7.47;6.27;;;12.30;93.70;;;;;;5031638;28;20623;-53
2021/05/13 04:41:03;;;;;;;7.80;6.67;;;12.40;93.80;;;;;;5030060;28;20723;-54
2021/05/13 04:43:32;;;;;;;8.43;6.30;;;12.40;93.80;;;;;;5030220;28;20662;-53
2021/05/13 04:46:00;;;;;;;6.47;5.70;;;12.50;94.00;;;;;;5031413;28;20623;-53
2021/05/13 04:48:39;;;;;;;5.70;5.20;;;12.50;94.20;;;;;;5031117;28;20647;-54
2021/05/13 04:51:06;;;;;;;6.40;5.80;;;12.70;94.20;;;;;;5031632;28;20683;-53
2021/05/13 04:53:32;;;;;;;9.50;7.70;;;12.70;94.10;;;;;;5029141;28;21036;-52
2021/05/13 04:55:59;;;;;;;7.90;6.77;;;12.70;93.90;;;;;;5031073;28;20626;-53
2021/05/13 04:58:26;;;;;;;7.47;6.40;;;12.80;94.00;;;;;;5030579;28;20685;-53
2021/05/13 05:00:52;;;;;;;8.07;7.17;;;12.80;94.00;;;;;;5031167;28;21253;-52
2021/05/13 05:03:20;;;;;;;9.90;9.10;;;12.90;94.20;;;;;;5030148;28;20685;-52
2021/05/13 05:05:47;;;;;;;10.77;8.27;;;13.00;94.20;;;;;;5030605;28;20713;-53
2021/05/13 05:08:14;;;;;;;8.63;7.93;;;13.00;94.30;;;;;;5030816;28;20670;-53
2021/05/13 05:10:41;;;;;;;9.43;8.30;;;13.00;94.50;;;;;;5030770;28;20949;-53
2021/05/13 05:13:08;;;;;;;8.93;8.13;;;13.00;94.60;;;;;;5031209;28;20684;-53
2021/05/13 05:15:35;;;;;;;10.27;9.40;;;13.10;94.50;;;;;;5030751;28;20840;-53
2021/05/13 05:18:01;;;;;;;12.53;11.43;;;13.00;94.60;;;;;;5030157;28;20669;-52
2021/05/13 05:20:29;;;;;;;11.63;10.37;;;12.90;94.70;;;;;;5030711;28;20994;-52
2021/05/13 05:22:56;;;;;;;11.20;10.20;;;12.90;95.00;;;;;;5030844;28;20639;-54
2021/05/13 05:25:22;;;;;;;11.43;10.37;;;13.00;95.20;;;;;;5026493;28;20659;-53
2021/05/13 05:27:49;;;;;;;10.93;9.73;;;13.00;95.20;;;;;;5028561;28;20708;-53
2021/05/13 05:30:17;;;;;;;11.10;10.00;;;13.10;95.20;;;;;;5030726;28;20623;-54
2021/05/13 05:32:44;;;;;;;10.83;9.70;;;13.10;95.10;;;;;;5030912;28;20685;-53
2021/05/13 05:35:11;;;;;;;11.57;10.43;;;13.10;95.00;;;;;;5030402;28;21046;-53
2021/05/13 05:37:39;;;;;;;11.10;10.20;;;13.20;94.90;;;;;;5029921;28;20661;-52
2021/05/13 05:40:08;;;;;;;10.53;9.43;;;13.20;95.00;;;;;;5028830;28;20626;-52
2021/05/13 05:42:34;;;;;;;11.53;10.43;;;13.20;94.90;;;;;;5030256;28;21327;-52
2021/05/13 05:45:01;;;;;;;10.53;9.43;;;13.10;94.90;;;;;;5025791;28;20737;-54
2021/05/13 05:47:28;;;;;;;11.03;9.93;;;13.20;95.00;;;;;;5009838;28;20655;-53
2021/05/13 05:49:55;;;;;;;10.57;9.60;;;13.20;95.00;;;;;;5026506;28;20643;-53
2021/05/13 05:52:21;;;;;;;10.87;9.97;;;13.20;94.90;;;;;;5030230;28;20630;-53
2021/05/13 05:54:50;;;;;;;11.33;10.10;;;13.30;94.90;;;;;;5030296;28;20655;-53
2021/05/13 05:57:20;;;;;;;11.57;10.57;;;13.30;94.80;;;;;;5031231;28;20622;-53
2021/05/13 05:59:46;;;;;;;11.20;10.40;;;13.30;94.80;;;;;;5029205;28;20626;-53
2021/05/13 06:02:13;;;;;;;11.73;10.70;;;13.40;94.70;;;;;;5028481;28;20627;-53
2021/05/13 06:04:40;;;;;;;11.10;10.00;;;13.50;94.70;;;;;;5029715;28;21077;-54
2021/05/13 06:07:07;;;;;;;12.57;10.43;;;13.50;94.50;;;;;;5029259;28;20631;-53
2021/05/13 06:09:33;;;;;;;12.93;10.30;;;13.50;94.40;;;;;;5029977;28;20638;-54
2021/05/13 06:12:01;;;;;;;11.63;10.63;;;13.50;94.40;;;;;;5028082;28;20684;-54
2021/05/13 06:14:28;;;;;;;11.27;10.00;;;13.60;94.30;;;;;;5029654;28;20721;-54
2021/05/13 06:16:54;;;;;;;10.73;9.63;;;13.60;94.30;;;;;;5030020;28;20631;-53
2021/05/13 06:19:21;;;;;;;14.63;10.83;;;13.70;94.40;;;;;;5030000;28;20677;-53
2021/05/13 06:21:48;;;;;;;12.27;11.13;;;13.70;94.40;;;;;;5028076;28;20644;-53
2021/05/13 06:24:15;;;;;;;12.47;11.27;;;13.80;94.30;;;;;;5029578;28;20796;-53
2021/05/13 06:26:42;;;;;;;12.77;11.20;;;13.80;94.30;;;;;;5024806;28;20689;-52
2021/05/13 06:29:09;;;;;;;12.40;11.30;;;13.80;94.30;;;;;;5028843;28;20931;-53
2021/05/13 06:31:37;;;;;;;13.33;11.83;;;13.80;94.20;;;;;;5029775;28;20631;-52
2021/05/13 06:34:04;;;;;;;13.40;12.10;;;13.90;94.30;;;;;;5030627;28;20744;-52
2021/05/13 06:36:31;;;;;;;16.07;13.40;;;13.90;94.20;;;;;;5040809;28;20660;-53
2021/05/13 06:38:57;;;;;;;13.03;11.87;;;13.90;94.40;;;;;;5043094;28;21124;-52
2021/05/13 06:41:24;;;;;;;16.27;12.87;;;14.00;94.40;;;;;;5029565;28;20992;-54
2021/05/13 06:43:51;;;;;;;11.37;10.27;;;14.10;94.30;;;;;;5027354;28;21219;-54
2021/05/13 06:46:20;;;;;;;11.50;10.30;;;14.10;94.00;;;;;;5029170;28;20639;-54
2021/05/13 06:48:47;;;;;;;9.90;9.00;;;14.10;94.00;;;;;;5028511;28;20763;-53
2021/05/13 06:51:13;;;;;;;14.03;10.90;;;14.10;93.60;;;;;;5023268;28;20624;-53
2021/05/13 06:53:40;;;;;;;11.97;10.70;;;14.20;93.60;;;;;;5017545;28;20793;-54
2021/05/13 06:56:07;;;;;;;10.87;9.87;;;14.30;93.70;;;;;;5017728;28;20690;-54
2021/05/13 06:58:34;;;;;;;10.53;9.63;;;14.30;93.30;;;;;;5018254;28;20615;-55
2021/05/13 07:01:00;;;;;;;9.43;8.63;;;14.40;93.50;;;;;;5025835;28;20696;-52
2021/05/13 07:03:28;;;;;;;11.37;10.37;;;14.50;93.70;;;;;;5028377;28;21027;-52
2021/05/13 07:05:55;;;;;;;10.47;9.57;;;14.70;93.30;;;;;;5029367;28;20993;-52
2021/05/13 07:08:22;;;;;;;9.70;8.73;;;14.90;93.00;;;;;;5028847;28;20681;-52
2021/05/13 07:10:48;;;;;;;11.93;10.07;;;15.10;93.10;;;;;;5029382;28;20669;-52
2021/05/13 07:13:15;;;;;;;10.20;9.10;;;15.30;93.10;;;;;;5029930;28;20657;-52
2021/05/13 07:15:42;;;;;;;10.77;8.33;;;15.50;93.20;;;;;;5029201;28;20705;-52
2021/05/13 07:18:12;;;;;;;11.33;9.23;;;15.70;92.50;;;;;;5030845;28;20655;-54
2021/05/13 07:20:40;;;;;;;11.07;10.00;;;15.90;92.10;;;;;;5032026;28;20639;-54
2021/05/13 07:23:06;;;;;;;12.13;11.10;;;16.10;91.80;;;;;;5031634;28;20623;-54
2021/05/13 07:25:33;;;;;;;9.93;9.03;;;16.30;91.30;;;;;;5020771;28;20656;-54
2021/05/13 07:28:00;;;;;;;11.67;10.43;;;16.50;91.20;;;;;;5032534;28;20657;-54
2021/05/13 07:30:27;;;;;;;11.60;9.70;;;16.60;90.50;;;;;;5032930;28;20638;-54
2021/05/13 07:32:54;;;;;;;9.70;8.80;;;16.60;90.10;;;;;;5019759;28;20708;-54
2021/05/13 07:35:21;;;;;;;10.20;8.23;;;16.60;88.50;;;;;;5045913;22;20720;-51
2021/05/13 07:37:49;;;;;;;8.90;8.07;;;16.70;88.90;;;;;;5024531;28;20681;-50
2021/05/13 07:40:17;;;;;;;8.77;7.97;;;16.80;88.80;;;;;;5021419;28;20634;-51
2021/05/13 07:42:45;;;;;;;10.23;9.33;;;17.00;87.20;;;;;;5024695;28;21152;-52
2021/05/13 07:45:13;;;;;;;8.90;7.97;;;17.10;86.60;;;;;;5023316;28;20666;-52
2021/05/13 07:47:40;;;;;;;9.93;8.90;;;17.20;85.60;;;;;;5025239;28;20658;-51
2021/05/13 07:50:08;;;;;;;10.67;9.77;;;17.30;85.50;;;;;;5023993;28;21185;-52
2021/05/13 07:52:34;;;;;;;10.73;9.83;;;17.40;86.10;;;;;;5022186;28;20674;-52
2021/05/13 07:55:02;;;;;;;11.03;9.83;;;17.70;84.00;;;;;;5030475;28;20717;-52
2021/05/13 07:57:29;;;;;;;10.27;9.30;;;17.90;82.60;;;;;;5032265;28;20700;-52
2021/05/13 07:59:56;;;;;;;10.30;9.33;;;17.90;82.30;;;;;;5032277;28;20961;-52
2021/05/13 08:02:23;;;;;;;11.90;9.43;;;18.00;83.00;;;;;;5046318;28;20626;-53
2021/05/13 08:04:49;;;;;;;11.37;10.37;;;18.20;81.80;;;;;;5047349;28;20662;-51
2021/05/13 08:07:19;;;;;;;12.33;10.50;;;18.40;82.30;;;;;;5035318;28;21025;-51
2021/05/13 08:09:46;;;;;;;10.63;9.00;;;18.60;79.50;;;;;;5030820;28;20689;-51
2021/05/13 08:12:14;;;;;;;11.77;10.03;;;18.60;79.00;;;;;;5023701;28;20694;-52
2021/05/13 08:14:41;;;;;;;10.43;9.43;;;18.60;79.10;;;;;;5014536;28;20651;-51
2021/05/13 08:17:07;;;;;;;10.27;9.37;;;18.60;79.40;;;;;;5031283;28;20876;-51
2021/05/13 08:19:34;;;;;;;10.30;8.60;;;18.70;79.20;;;;;;5028738;28;20628;-51
2021/05/13 08:22:01;;;;;;;12.07;9.67;;;18.80;78.40;;;;;;5033189;28;21045;-51
2021/05/13 08:24:28;;;;;;;9.50;8.60;;;19.00;77.70;;;;;;5030498;28;20658;-52
2021/05/13 08:26:57;;;;;;;9.40;8.70;;;19.20;74.60;;;;;;5032818;28;20634;-52
2021/05/13 08:29:26;;;;;;;10.23;9.23;;;19.00;74.00;;;;;;5030747;28;20712;-53
2021/05/13 08:31:53;;;;;;;10.93;9.10;;;18.90;75.50;;;;;;5032394;28;20631;-52
2021/05/13 08:34:19;;;;;;;8.63;7.63;;;18.90;75.50;;;;;;5023455;28;21218;-52
2021/05/13 08:36:46;;;;;;;7.90;7.00;;;18.90;75.30;;;;;;5032743;28;21196;-51
2021/05/13 08:39:13;;;;;;;7.43;6.67;;;18.90;75.50;;;;;;5030308;28;20627;-51
2021/05/13 08:41:40;;;;;;;8.30;7.60;;;19.00;74.50;;;;;;5031674;28;21096;-52
2021/05/13 08:44:07;;;;;;;10.53;7.80;;;19.10;74.40;;;;;;5033063;28;20712;-50
2021/05/13 08:46:35;;;;;;;8.77;6.50;;;19.40;74.80;;;;;;5032054;28;21021;-52
2021/05/13 08:49:02;;;;;;;7.43;6.77;;;19.60;72.40;;;;;;5032001;28;21057;-51
2021/05/13 08:51:31;;;;;;;7.63;6.23;;;19.70;70.50;;;;;;5024749;28;20675;-52
2021/05/13 08:53:58;;;;;;;6.13;5.60;;;19.80;71.10;;;;;;5022513;28;20698;-53
2021/05/13 08:56:25;;;;;;;5.80;5.30;;;19.90;68.60;;;;;;5021664;28;20608;-53
2021/05/13 08:58:52;;;;;;;5.80;5.30;;;20.00;68.40;;;;;;5027461;28;21185;-52
2021/05/13 09:01:21;;;;;;;6.07;5.57;;;20.00;66.80;;;;;;5032945;28;20627;-51
2021/05/13 09:03:49;;;;;;;5.43;4.93;;;19.90;67.10;;;;;;5045634;28;20631;-51
2021/05/13 09:06:23;;;;;;;5.00;3.93;;;19.90;67.00;;;;;;5040846;28;20630;-51
2021/05/13 09:08:49;;;;;;;5.50;4.30;;;19.90;66.70;;;;;;5033293;28;20709;-52
2021/05/13 09:11:17;;;;;;;7.07;5.40;;;19.90;66.70;;;;;;5044892;28;20618;-52
2021/05/13 09:13:48;;;;;;;8.83;5.50;;;20.10;64.70;;;;;;5051931;28;20625;-52
2021/05/13 09:16:28;;;;;;;4.70;4.30;;;19.80;63.80;;;;;;5044719;28;21253;-51
2021/05/13 09:18:56;;;;;;;5.90;4.93;;;19.70;65.90;;;;;;5031931;28;20658;-51
2021/05/13 09:21:23;;;;;;;6.03;4.83;;;19.80;66.60;;;;;;5030745;28;20631;-51
2021/05/13 09:23:50;;;;;;;7.13;4.87;;;20.10;65.50;;;;;;5031993;28;21017;-52
2021/05/13 09:26:17;;;;;;;6.10;4.90;;;20.20;64.80;;;;;;5031568;28;20615;-52
2021/05/13 09:28:45;;;;;;;5.43;4.67;;;20.20;63.40;;;;;;5030986;28;20683;-52
2021/05/13 09:31:33;;;;;;;5.30;4.80;;;20.30;63.90;;;;;;5031625;28;20658;-51
2021/05/13 09:34:05;;;;;;;5.30;3.83;;;20.30;63.50;;;;;;5031226;28;20750;-53
2021/05/13 09:36:32;;;;;;;4.50;4.03;;;20.30;60.80;;;;;;5031967;28;20666;-52
2021/05/13 09:38:59;;;;;;;8.80;4.93;;;20.20;59.90;;;;;;5029312;28;21232;-51
2021/05/13 09:41:29;;;;;;;4.83;4.33;;;20.20;59.80;;;;;;5030154;28;20673;-51
2021/05/13 09:43:56;;;;;;;5.60;4.33;;;20.40;60.20;;;;;;5024936;28;20721;-51
2021/05/13 09:46:33;;;;;;;5.60;4.20;;;20.90;57.80;;;;;;5031442;28;20631;-52
2021/05/13 09:49:00;;;;;;;4.83;3.13;;;21.20;56.80;;;;;;5030856;28;20650;-52
2021/05/13 09:51:29;;;;;;;5.00;3.50;;;21.40;53.80;;;;;;5031563;28;21198;-51
2021/05/13 09:54:06;;;;;;;3.50;3.20;;;21.30;51.30;;;;;;5030961;28;20647;-52
2021/05/13 09:56:33;;;;;;;4.93;3.80;;;21.00;51.60;;;;;;5030355;28;20627;-53
2021/05/13 09:59:18;;;;;;;8.40;3.43;;;21.00;52.60;;;;;;5023550;28;20951;-52
2021/05/13 10:01:46;;;;;;;4.17;3.07;;;21.10;52.00;;;;;;5037727;28;20626;-52
2021/05/13 10:04:12;;;;;;;2.30;1.63;;;21.30;51.40;;;;;;5031832;28;21242;-53
2021/05/13 10:06:40;;;;;;;4.50;2.13;;;21.60;45.20;;;;;;5033762;28;21180;-53
2021/05/13 10:09:07;;;;;;;3.30;2.67;;;21.40;45.40;;;;;;5032471;28;20693;-52
2021/05/13 10:11:34;;;;;;;4.37;3.13;;;21.40;46.90;;;;;;5020706;28;20619;-52
2021/05/13 10:14:01;;;;;;;7.80;2.33;;;21.40;45.40;;;;;;5025452;28;20671;-53
2021/05/13 10:16:28;;;;;;;6.83;1.70;;;21.50;42.80;;;;;;5030194;28;20697;-53
2021/05/13 10:18:57;;;;;;;6.27;2.23;;;21.50;42.10;;;;;;5030842;28;20655;-53
2021/05/13 10:21:24;;;;;;;3.20;1.77;;;21.60;41.70;;;;;;5039412;28;20645;-52
2021/05/13 10:23:53;;;;;;;7.43;2.30;;;21.80;42.10;;;;;;5030657;28;20643;-53
2021/05/13 10:26:45;;;;;;;5.93;2.70;;;22.20;41.50;;;;;;5029997;28;20745;-52
2021/05/13 10:29:34;;;;;;;2.23;2.03;;;22.70;41.20;;;;;;5029680;28;20663;-53
2021/05/13 10:32:10;;;;;;;11.80;3.00;;;23.30;39.30;;;;;;5033200;28;20626;-52
2021/05/13 10:34:47;;;;;;;2.77;2.30;;;23.50;39.10;;;;;;5037586;28;20728;-52
2021/05/13 10:37:16;;;;;;;6.03;2.40;;;23.80;38.20;;;;;;5030297;28;21016;-53
2021/05/13 10:40:21;;;;;;;2.67;1.63;;;23.70;36.80;;;;;;5030700;28;20623;-52
2021/05/13 10:42:57;;;;;;;2.50;2.27;;;23.50;36.00;;;;;;5014480;28;20627;-52
2021/05/13 10:45:34;;;;;;;3.00;2.13;;;23.20;36.70;;;;;;5020458;28;21460;-51
2021/05/13 10:48:11;;;;;;;4.60;2.97;;;22.90;36.70;;;;;;5026826;28;20709;-52
2021/05/13 10:50:48;;;;;;;4.63;2.67;;;22.90;37.10;;;;;;5015316;28;20685;-52
2021/05/13 10:53:42;;;;;;;3.10;2.20;;;23.40;38.20;;;;;;5032009;28;20686;-52
2021/05/13 10:56:22;;;;;;;4.13;2.20;;;23.90;37.20;;;;;;5028381;28;20689;-53
2021/05/13 10:58:53;;;;;;;2.50;1.90;;;23.90;36.40;;;;;;5023522;28;20646;-52
2021/05/13 11:01:32;;;;;;;2.77;1.70;;;23.90;36.70;;;;;;5022669;28;21432;-52
2021/05/13 11:04:38;;;;;;;3.77;3.10;;;23.80;37.20;;;;;;5028566;28;21010;-52
2021/05/13 11:07:06;;;;;;;4.67;2.33;;;23.80;36.10;;;;;;5021691;28;20681;-52
2021/05/13 11:09:57;;;;;;;6.40;2.40;;;23.80;34.80;;;;;;5022892;28;20767;-52
2021/05/13 11:12:26;;;;;;;2.30;1.43;;;23.50;34.40;;;;;;5019220;28;20724;-52
2021/05/13 11:15:15;;;;;;;3.93;2.23;;;23.40;34.40;;;;;;5028234;28;20762;-52
2021/05/13 11:18:08;;;;;;;5.43;3.23;;;23.50;34.00;;;;;;5027226;28;20611;-53
2021/05/13 11:20:57;;;;;;;5.10;2.03;;;23.30;36.10;;;;;;5016129;28;20635;-52
2021/05/13 11:23:26;;;;;;;3.77;1.53;;;23.30;36.90;;;;;;5022218;28;20685;-52
2021/05/13 11:25:54;;;;;;;4.57;2.30;;;23.30;31.60;;;;;;5025688;28;20651;-53
2021/05/13 11:28:27;;;;;;;3.73;1.80;;;23.40;31.50;;;;;;5027619;28;20623;-51
2021/05/13 11:30:54;;;;;;;4.97;2.10;;;23.60;32.00;;;;;;5025161;28;20655;-52
2021/05/13 11:33:21;;;;;;;4.33;3.13;;;23.60;32.60;;;;;;5027764;28;20615;-51
2021/05/13 11:35:48;;;;;;;2.53;2.20;;;23.30;33.50;;;;;;5026195;28;20670;-51
2021/05/13 11:38:20;;;;;;;3.00;2.47;;;23.50;34.10;;;;;;5032983;28;20623;-51
2021/05/13 11:40:47;;;;;;;3.90;2.63;;;23.80;34.30;;;;;;5032964;28;20684;-51
2021/05/13 11:43:24;;;;;;;2.33;2.13;;;23.80;34.60;;;;;;5033818;28;20696;-51
2021/05/13 11:45:52;;;;;;;4.43;2.47;;;23.80;35.00;;;;;;5033650;28;21027;-52
2021/05/13 11:48:27;;;;;;;2.80;2.60;;;24.00;34.20;;;;;;5033716;28;20631;-52
2021/05/13 11:50:54;;;;;;;5.10;2.73;;;24.10;35.10;;;;;;5033549;28;20654;-53
2021/05/13 11:53:23;;;;;;;2.33;1.80;;;24.30;34.50;;;;;;5033180;28;20757;-52
2021/05/13 11:55:49;;;;;;;5.63;2.53;;;24.40;32.40;;;;;;5032354;28;20708;-51
2021/05/13 11:58:35;;;;;;;3.10;2.47;;;24.30;32.00;;;;;;5032917;28;20677;-52
2021/05/13 12:01:15;;;;;;;3.63;2.17;;;24.10;33.10;;;;;;5032238;28;20618;-52
2021/05/13 12:03:42;;;;;;;5.00;2.73;;;24.10;32.10;;;;;;5032023;28;20676;-52
2021/05/13 12:06:09;;;;;;;3.23;2.10;;;24.10;33.30;;;;;;5033667;28;20692;-51
2021/05/13 12:08:38;;;;;;;4.77;2.60;;;24.20;31.50;;;;;;5032984;28;21171;-51
2021/05/13 12:11:19;;;;;;;4.50;3.13;;;24.10;32.50;;;;;;5031868;28;20627;-51
2021/05/13 12:13:47;;;;;;;2.57;2.33;;;23.80;32.60;;;;;;5032920;28;20943;-51
2021/05/13 12:16:14;;;;;;;2.57;2.37;;;23.80;33.60;;;;;;5033247;28;20635;-51
2021/05/13 12:18:42;;;;;;;5.93;3.13;;;24.00;33.20;;;;;;5032903;28;20630;-53
2021/05/13 12:21:09;;;;;;;2.80;2.23;;;24.20;32.80;;;;;;5031908;28;20638;-52
2021/05/13 12:23:38;;;;;;;2.70;2.23;;;24.50;32.10;;;;;;5033279;28;20626;-52
2021/05/13 12:26:05;;;;;;;3.03;2.23;;;24.90;31.60;;;;;;5033310;28;20626;-52
2021/05/13 12:28:32;;;;;;;4.57;2.83;;;25.30;32.10;;;;;;5032706;28;20626;-51
2021/05/13 12:30:59;;;;;;;4.33;3.00;;;25.50;32.00;;;;;;5032851;28;20627;-51
2021/05/13 12:33:28;;;;;;;4.00;3.33;;;25.60;31.60;;;;;;5032878;28;21152;-52
2021/05/13 12:35:55;;;;;;;5.43;2.97;;;25.80;32.40;;;;;;5032551;28;21203;-51
2021/05/13 12:38:23;;;;;;;6.43;3.37;;;25.70;30.80;;;;;;5032597;28;20626;-53
2021/05/13 12:40:50;;;;;;;4.77;2.90;;;25.40;31.50;;;;;;5032590;28;21117;-50
2021/05/13 12:43:17;;;;;;;2.83;2.10;;;24.80;32.70;;;;;;5032491;28;20726;-52
2021/05/13 12:45:45;;;;;;;2.13;2.00;;;23.90;36.90;;;;;;5032589;28;20650;-51
2021/05/13 12:48:20;;;;;;;4.83;2.60;;;23.30;39.10;;;;;;5032735;28;20623;-51
2021/05/13 12:50:58;;;;;;;2.27;1.70;;;22.30;41.00;;;;;;5015768;28;20686;-51